Time;durP1;ratioP1;P1;durP2;ratioP2;P2;SDS_P1;SDS_P2;PMS_P1;PMS_P2;Temp;Humidity;BMP_temperature;BMP_pressure;BME280_temperature;BME280_humidity;BME280_pressure;Samples;Min_cycle;Max_cycle;Signal;HPM_P1;HPM_P2
2023/06/21 08:47:00;;;;;;;9.88;8.27;;;28.60;98.40;;;;;;5074425;28;20606;-83
2023/06/21 08:49:28;;;;;;;8.88;8.00;;;28.80;97.50;;;;;;5071653;28;20211;-83
2023/06/21 08:51:55;;;;;;;10.30;8.73;;;29.00;96.30;;;;;;5071548;28;20180;-83
2023/06/21 08:54:24;;;;;;;11.13;7.90;;;28.80;95.10;;;;;;5072020;28;20177;-83
2023/06/21 08:57:01;;;;;;;10.45;8.30;;;28.90;95.10;;;;;;5071317;28;20204;-83
2023/06/21 08:59:32;;;;;;;8.82;8.02;;;28.50;94.90;;;;;;5072293;28;20251;-83
2023/06/21 09:02:19;;;;;;;9.13;8.20;;;28.20;95.60;;;;;;5071810;28;20191;-83
2023/06/21 09:04:49;;;;;;;8.40;7.60;;;28.10;96.60;;;;;;5070679;28;20220;-83
2023/06/21 09:07:15;;;;;;;9.52;7.75;;;28.10;95.20;;;;;;5071494;28;20192;-83
2023/06/21 09:09:43;;;;;;;15.52;7.40;;;28.00;94.80;;;;;;5072055;28;20226;-83
2023/06/21 09:12:12;;;;;;;9.77;7.45;;;28.00;94.30;;;;;;5071035;28;20716;-83
2023/06/21 09:14:39;;;;;;;8.18;7.30;;;27.80;94.10;;;;;;5071222;28;20180;-83
2023/06/21 09:17:05;;;;;;;8.32;7.53;;;27.90;94.40;;;;;;5071187;28;20276;-83
2023/06/21 09:19:31;;;;;;;10.43;7.65;;;27.90;93.10;;;;;;5071239;28;20307;-83
2023/06/21 09:21:57;;;;;;;8.40;7.53;;;27.80;93.70;;;;;;5071217;28;20177;-83
2023/06/21 09:24:23;;;;;;;11.82;7.32;;;27.90;93.90;;;;;;5071545;28;20173;-83
2023/06/21 09:26:49;;;;;;;7.85;7.05;;;27.90;93.40;;;;;;5072314;28;20303;-83
2023/06/21 09:29:15;;;;;;;10.32;7.75;;;27.70;93.40;;;;;;5072121;28;20524;-83
2023/06/21 09:31:42;;;;;;;9.30;7.28;;;27.50;94.10;;;;;;5072414;28;20516;-83
2023/06/21 09:34:07;;;;;;;7.18;6.50;;;27.60;94.30;;;;;;5071868;28;20276;-83
2023/06/21 09:36:33;;;;;;;7.90;7.10;;;27.70;94.10;;;;;;5072224;28;20231;-83
2023/06/21 09:39:09;;;;;;;8.93;7.63;;;28.00;93.50;;;;;;5072886;28;20178;-83
2023/06/21 09:41:35;;;;;;;7.47;6.75;;;28.10;92.80;;;;;;5072084;28;20181;-83
2023/06/21 09:44:01;;;;;;;7.90;6.68;;;28.30;93.40;;;;;;5072034;28;20181;-83
2023/06/21 09:46:27;;;;;;;10.68;8.18;;;28.20;91.30;;;;;;5071390;28;20251;-83
2023/06/21 09:48:53;;;;;;;8.05;7.25;;;28.10;92.30;;;;;;5071979;28;20172;-83
2023/06/21 09:51:23;;;;;;;8.68;7.38;;;28.20;92.30;;;;;;5072206;28;20181;-83
2023/06/21 09:53:50;;;;;;;8.95;6.60;;;28.20;92.40;;;;;;5071977;28;20176;-83
2023/06/21 09:56:18;;;;;;;7.72;6.88;;;28.20;93.00;;;;;;5069664;28;20645;-83
2023/06/21 09:58:43;;;;;;;7.95;6.70;;;28.60;92.50;;;;;;5058961;28;20264;-83
2023/06/21 10:01:14;;;;;;;8.18;7.32;;;29.00;91.40;;;;;;5058548;28;20265;-83
2023/06/21 10:03:44;;;;;;;7.95;7.13;;;29.20;90.40;;;;;;5059248;28;20197;-83
2023/06/21 10:06:14;;;;;;;8.35;7.30;;;29.00;89.50;;;;;;5058568;28;20224;-83
2023/06/21 10:08:40;;;;;;;7.32;6.63;;;29.20;90.30;;;;;;5059113;28;20177;-83
2023/06/21 10:11:06;;;;;;;8.90;7.20;;;29.50;88.80;;;;;;5058494;28;20189;-83
2023/06/21 10:13:33;;;;;;;7.38;6.72;;;29.60;87.00;;;;;;5059021;28;20177;-83
2023/06/21 10:16:01;;;;;;;8.63;7.10;;;29.80;87.30;;;;;;5058532;28;20206;-83
2023/06/21 10:18:28;;;;;;;6.97;6.38;;;29.80;86.50;;;;;;5058151;28;20652;-83
2023/06/21 10:21:01;;;;;;;7.05;6.38;;;29.90;85.20;;;;;;5057742;28;20241;-83
2023/06/21 10:23:34;;;;;;;8.57;6.25;;;29.90;84.10;;;;;;5057808;28;20178;-83
2023/06/21 10:26:02;;;;;;;7.72;6.80;;;29.90;83.90;;;;;;5058923;28;20217;-83
2023/06/21 10:28:28;;;;;;;7.97;7.10;;;29.60;83.00;;;;;;5058476;28;20204;-83
2023/06/21 10:30:59;;;;;;;8.10;7.30;;;29.10;85.40;;;;;;5058487;28;20267;-83
2023/06/21 10:33:29;;;;;;;7.25;6.20;;;28.70;87.10;;;;;;5058425;28;20548;-83
2023/06/21 10:35:56;;;;;;;7.65;6.63;;;28.60;88.40;;;;;;5058404;28;20284;-83
2023/06/21 10:38:38;;;;;;;7.07;6.38;;;28.40;87.90;;;;;;5058053;28;20216;-83
2023/06/21 10:41:05;;;;;;;7.35;6.53;;;28.60;88.80;;;;;;5058972;28;20161;-83
2023/06/21 10:43:31;;;;;;;9.10;6.47;;;28.70;86.70;;;;;;5059123;28;20185;-83
2023/06/21 10:45:58;;;;;;;8.38;6.63;;;28.50;85.90;;;;;;5057907;28;20213;-82
2023/06/21 10:48:25;;;;;;;7.75;6.38;;;28.40;86.60;;;;;;5059465;28;20174;-83
2023/06/21 10:50:51;;;;;;;6.75;5.63;;;28.50;85.60;;;;;;5058568;28;20178;-82
2023/06/21 10:53:19;;;;;;;6.43;5.75;;;28.10;85.90;;;;;;5058548;28;20181;-83
2023/06/21 10:55:46;;;;;;;6.53;5.60;;;28.00;85.70;;;;;;5058935;28;20197;-83
2023/06/21 10:58:13;;;;;;;6.95;5.78;;;28.00;86.70;;;;;;5058583;28;20670;-83
2023/06/21 11:00:42;;;;;;;7.97;6.20;;;28.10;85.50;;;;;;5059024;28;20201;-83
2023/06/21 11:03:12;;;;;;;8.05;6.03;;;28.20;85.80;;;;;;5058196;28;20318;-82
2023/06/21 11:05:38;;;;;;;8.63;5.75;;;28.20;85.40;;;;;;5058704;28;20217;-83
2023/06/21 11:08:06;;;;;;;7.55;6.15;;;28.20;85.70;;;;;;5057699;28;20174;-83
2023/06/21 11:10:42;;;;;;;6.55;5.93;;;28.20;85.60;;;;;;5058384;28;20181;-83
2023/06/21 11:13:09;;;;;;;6.97;5.95;;;28.10;86.80;;;;;;5058621;28;20177;-83
2023/06/21 11:15:38;;;;;;;5.78;5.18;;;28.20;84.10;;;;;;5058588;28;20197;-83
2023/06/21 11:18:08;;;;;;;8.70;6.15;;;28.40;84.10;;;;;;5057558;28;20182;-82
2023/06/21 11:20:47;;;;;;;6.85;6.13;;;28.70;84.10;;;;;;5058136;28;20546;-83
2023/06/21 11:23:25;;;;;;;6.88;5.97;;;28.80;84.80;;;;;;5058928;28;20226;-83
2023/06/21 11:25:58;;;;;;;7.80;5.88;;;28.90;82.80;;;;;;5058149;28;20620;-82
2023/06/21 11:28:29;;;;;;;6.80;6.10;;;28.70;81.50;;;;;;5058453;28;20170;-83
2023/06/21 11:31:03;;;;;;;7.38;6.28;;;28.70;83.50;;;;;;5058360;28;20635;-83
2023/06/21 11:33:31;;;;;;;7.90;5.75;;;28.90;83.80;;;;;;5057820;28;20631;-83
2023/06/21 11:36:07;;;;;;;11.05;6.45;;;28.90;81.50;;;;;;5058470;28;20208;-83
2023/06/21 11:38:34;;;;;;;7.65;6.30;;;29.00;81.90;;;;;;5058234;28;20196;-83
2023/06/21 11:41:01;;;;;;;6.60;5.90;;;29.10;81.30;;;;;;5057746;28;20181;-83
2023/06/21 11:43:27;;;;;;;6.63;6.03;;;29.20;81.50;;;;;;5057836;28;20181;-83
2023/06/21 11:45:57;;;;;;;7.75;5.95;;;29.50;80.40;;;;;;5057317;28;20222;-82
2023/06/21 11:48:26;;;;;;;7.40;6.40;;;29.30;80.10;;;;;;5058088;28;20196;-83
2023/06/21 11:50:53;;;;;;;6.50;5.80;;;29.30;80.80;;;;;;5057710;28;20173;-83
2023/06/21 11:53:28;;;;;;;6.32;5.75;;;29.40;82.40;;;;;;5058517;28;20181;-83
2023/06/21 11:56:01;;;;;;;7.28;5.53;;;29.60;80.10;;;;;;5058191;28;20566;-83
2023/06/21 11:58:27;;;;;;;7.28;5.28;;;29.80;77.90;;;;;;5058195;28;20640;-83
2023/06/21 12:00:54;;;;;;;7.40;5.57;;;30.20;77.60;;;;;;5057380;28;20181;-83
2023/06/21 12:03:21;;;;;;;7.00;5.68;;;30.20;76.70;;;;;;5057274;28;20323;-83
2023/06/21 12:06:01;;;;;;;6.38;5.47;;;30.40;75.90;;;;;;5057459;28;20617;-83
2023/06/21 12:08:31;;;;;;;5.78;5.28;;;30.40;73.70;;;;;;5057401;28;20197;-83
2023/06/21 12:10:58;;;;;;;5.82;5.32;;;30.60;75.30;;;;;;5056347;28;20259;-83
2023/06/21 12:13:25;;;;;;;5.70;5.20;;;30.70;72.90;;;;;;5057904;28;20230;-83
2023/06/21 12:15:52;;;;;;;6.38;5.32;;;30.50;72.10;;;;;;5056259;28;20206;-83
2023/06/21 12:18:18;;;;;;;9.65;5.35;;;30.20;72.90;;;;;;5056847;28;20277;-83
2023/06/21 12:20:44;;;;;;;6.25;5.65;;;30.10;74.70;;;;;;5056788;28;20207;-83
2023/06/21 12:23:10;;;;;;;6.00;5.43;;;30.10;74.80;;;;;;5056514;28;20232;-83
2023/06/21 12:25:47;;;;;;;6.50;5.85;;;30.10;73.60;;;;;;5056582;28;20197;-83
2023/06/21 12:28:14;;;;;;;7.15;6.10;;;29.90;73.30;;;;;;5056508;28;20176;-83
2023/06/21 12:30:55;;;;;;;6.15;5.65;;;29.80;74.20;;;;;;5056345;28;20556;-83
2023/06/21 12:33:28;;;;;;;6.38;5.78;;;30.00;74.90;;;;;;5057233;28;20174;-83
2023/06/21 12:36:17;;;;;;;7.38;5.57;;;30.00;73.20;;;;;;5057151;28;20212;-83
2023/06/21 12:39:01;;;;;;;6.90;5.53;;;30.00;75.00;;;;;;5056578;28;20523;-82
2023/06/21 12:41:28;;;;;;;6.07;5.32;;;30.00;73.90;;;;;;5057646;28;20166;-83
2023/06/21 12:43:57;;;;;;;7.88;6.07;;;29.90;73.40;;;;;;5056886;28;20177;-83
2023/06/21 12:46:23;;;;;;;8.68;5.57;;;29.90;72.90;;;;;;5055178;28;20213;-83
2023/06/21 12:48:53;;;;;;;6.22;5.72;;;29.70;73.70;;;;;;5056122;28;20178;-83
2023/06/21 12:51:28;;;;;;;8.45;6.22;;;29.70;74.20;;;;;;5056902;28;20536;-83
2023/06/21 12:54:19;;;;;;;6.45;5.88;;;29.70;75.60;;;;;;5056287;28;20173;-83
2023/06/21 12:56:47;;;;;;;7.03;6.32;;;29.80;75.80;;;;;;5051352;28;20692;-83
2023/06/21 12:59:13;;;;;;;6.75;6.13;;;29.70;74.60;;;;;;5056429;28;20178;-83
2023/06/21 13:01:39;;;;;;;6.28;5.78;;;29.60;74.10;;;;;;5056343;28;20191;-83
2023/06/21 13:04:10;;;;;;;6.43;5.93;;;29.50;75.10;;;;;;5056364;28;20189;-83
2023/06/21 13:06:36;;;;;;;6.68;6.07;;;29.50;74.90;;;;;;5055346;28;20583;-83
2023/06/21 13:09:03;;;;;;;7.63;6.25;;;29.40;75.80;;;;;;5055667;28;20197;-83
2023/06/21 13:11:29;;;;;;;8.82;6.35;;;29.40;76.00;;;;;;5055870;28;20243;-83
2023/06/21 13:13:55;;;;;;;7.00;6.30;;;29.40;75.60;;;;;;5055602;28;20644;-83
2023/06/21 13:16:21;;;;;;;6.85;6.10;;;29.50;76.10;;;;;;5055849;28;20193;-83
2023/06/21 13:18:48;;;;;;;10.25;6.68;;;29.40;77.60;;;;;;5055820;28;20181;-83
2023/06/21 13:21:16;;;;;;;6.70;6.13;;;29.30;78.50;;;;;;5055851;28;20178;-83
2023/06/21 13:23:45;;;;;;;8.23;5.85;;;29.30;78.60;;;;;;5056390;28;20315;-83
2023/06/21 13:26:12;;;;;;;8.13;6.40;;;29.20;77.70;;;;;;5056005;28;20237;-83
2023/06/21 13:28:37;;;;;;;7.32;6.40;;;29.00;78.50;;;;;;5055961;28;20181;-83
2023/06/21 13:31:03;;;;;;;6.85;6.25;;;28.90;80.10;;;;;;5056137;28;20169;-83
2023/06/21 13:33:29;;;;;;;10.23;6.78;;;28.90;80.00;;;;;;5059877;28;20170;-83
2023/06/21 13:35:54;;;;;;;7.50;6.80;;;29.00;79.60;;;;;;5059494;28;20700;-83
2023/06/21 13:38:21;;;;;;;6.68;6.13;;;29.30;80.70;;;;;;5059888;28;20182;-83
2023/06/21 13:40:47;;;;;;;6.57;5.80;;;29.60;76.00;;;;;;5060745;28;20181;-83
2023/06/21 13:43:13;;;;;;;6.60;6.00;;;29.90;75.70;;;;;;5059087;28;20177;-83
2023/06/21 13:45:38;;;;;;;8.70;6.53;;;30.20;73.40;;;;;;5059429;28;20358;-83
2023/06/21 13:48:05;;;;;;;8.20;6.80;;;30.30;73.20;;;;;;5059221;28;20203;-83
2023/06/21 13:50:31;;;;;;;7.70;6.78;;;30.30;74.60;;;;;;5058567;28;20209;-83
2023/06/21 13:52:56;;;;;;;6.90;6.20;;;30.30;73.40;;;;;;5058767;28;20544;-83
2023/06/21 13:55:22;;;;;;;6.50;5.90;;;30.30;73.50;;;;;;5059090;28;20177;-83
2023/06/21 13:57:53;;;;;;;6.70;6.10;;;30.20;72.60;;;;;;5059176;28;20211;-83
2023/06/21 14:00:20;;;;;;;8.20;6.63;;;30.00;72.50;;;;;;5059817;28;20173;-83
2023/06/21 14:02:47;;;;;;;7.88;6.10;;;29.70;74.70;;;;;;5058893;28;20178;-83
2023/06/21 14:05:15;;;;;;;9.93;6.60;;;29.60;74.10;;;;;;5059515;28;20212;-83
2023/06/21 14:07:42;;;;;;;9.23;6.80;;;29.70;74.60;;;;;;5058995;28;20194;-83
2023/06/21 14:10:09;;;;;;;7.32;6.13;;;29.90;76.60;;;;;;5059232;28;20173;-83
2023/06/21 14:12:39;;;;;;;7.30;6.60;;;30.10;75.40;;;;;;5058900;28;20173;-83
2023/06/21 14:15:05;;;;;;;9.40;6.53;;;30.30;73.30;;;;;;5058330;28;20195;-83
2023/06/21 14:17:31;;;;;;;6.50;6.00;;;30.40;73.60;;;;;;5058280;28;20201;-83
2023/06/21 14:19:59;;;;;;;8.40;6.25;;;30.50;73.10;;;;;;5058389;28;20532;-83
2023/06/21 14:22:29;;;;;;;8.00;6.15;;;30.60;74.10;;;;;;5058805;28;20181;-83
2023/06/21 14:24:58;;;;;;;7.05;6.40;;;30.40;72.50;;;;;;5058227;28;20185;-83
2023/06/21 14:27:27;;;;;;;8.50;6.55;;;30.20;72.10;;;;;;5058820;28;20193;-83
2023/06/21 14:30:00;;;;;;;7.13;6.43;;;30.10;73.70;;;;;;5058469;28;20170;-83
2023/06/21 14:32:29;;;;;;;7.00;6.40;;;30.10;74.60;;;;;;5058830;28;20174;-83
2023/06/21 14:34:55;;;;;;;6.90;6.28;;;29.80;72.20;;;;;;5057910;28;20177;-83
2023/06/21 14:37:20;;;;;;;7.57;6.22;;;29.60;73.10;;;;;;5058870;28;20197;-83
2023/06/21 14:39:46;;;;;;;8.38;5.82;;;29.60;71.30;;;;;;5058620;28;20181;-83
2023/06/21 14:42:12;;;;;;;5.68;5.28;;;29.70;73.20;;;;;;5057991;28;20174;-83
2023/06/21 14:44:39;;;;;;;6.32;5.57;;;29.60;73.30;;;;;;5058118;28;20173;-83
2023/06/21 14:47:05;;;;;;;6.13;5.53;;;29.60;73.20;;;;;;5058131;28;20213;-83
2023/06/21 14:49:31;;;;;;;6.25;5.68;;;29.50;73.20;;;;;;5057806;28;20252;-83
2023/06/21 14:51:57;;;;;;;6.70;6.00;;;29.40;74.60;;;;;;5057835;28;20572;-83
2023/06/21 14:54:23;;;;;;;6.65;5.85;;;29.20;74.20;;;;;;5057992;28;20242;-83
2023/06/21 14:56:49;;;;;;;6.50;5.90;;;29.20;72.90;;;;;;5058353;28;20232;-83
2023/06/21 14:59:14;;;;;;;7.65;6.28;;;29.20;73.00;;;;;;5058769;28;20174;-83
2023/06/21 15:01:40;;;;;;;6.22;5.63;;;29.20;73.10;;;;;;5057809;28;20326;-83
2023/06/21 15:04:05;;;;;;;6.00;5.43;;;29.10;73.90;;;;;;5058483;28;20256;-83
2023/06/21 15:06:33;;;;;;;6.30;5.70;;;29.20;72.80;;;;;;5057367;28;20701;-83
2023/06/21 15:08:59;;;;;;;6.35;5.75;;;29.10;70.90;;;;;;5058239;28;20181;-83
2023/06/21 15:11:24;;;;;;;6.53;5.90;;;28.80;73.20;;;;;;5057994;28;20173;-83
2023/06/21 15:13:51;;;;;;;7.47;5.93;;;28.70;73.70;;;;;;5058088;28;20227;-82
2023/06/21 15:16:16;;;;;;;7.47;6.05;;;28.40;74.10;;;;;;5057742;28;20194;-83
2023/06/21 15:18:42;;;;;;;7.68;6.22;;;28.20;73.50;;;;;;5058139;28;20185;-82
2023/06/21 15:21:07;;;;;;;6.25;5.75;;;28.20;75.30;;;;;;5058565;28;20182;-82
2023/06/21 15:23:33;;;;;;;6.18;5.75;;;28.30;74.30;;;;;;5058075;28;20241;-82
2023/06/21 15:25:59;;;;;;;6.43;5.53;;;28.40;75.20;;;;;;5057659;28;20215;-82
2023/06/21 15:28:24;;;;;;;6.45;5.85;;;28.30;74.50;;;;;;5058233;28;20216;-82
2023/06/21 15:30:51;;;;;;;6.25;5.75;;;28.30;75.10;;;;;;5057768;28;20201;-82
2023/06/21 15:33:17;;;;;;;6.13;5.55;;;28.30;76.90;;;;;;5056677;28;20181;-83
2023/06/21 15:35:42;;;;;;;5.93;5.43;;;28.40;76.80;;;;;;5057229;28;20178;-83
2023/06/21 15:38:10;;;;;;;6.60;5.50;;;28.50;74.90;;;;;;5057433;28;20264;-83
2023/06/21 15:40:37;;;;;;;9.18;5.85;;;28.50;74.40;;;;;;5057637;28;20173;-82
2023/06/21 15:43:02;;;;;;;8.07;5.70;;;28.60;74.30;;;;;;5057616;28;20227;-83
2023/06/21 15:48:00;;;;;;;6.70;6.07;;;28.60;75.10;;;;;;4998367;28;20218;-83
2023/06/21 15:50:26;;;;;;;6.43;5.75;;;28.50;74.30;;;;;;4998131;28;20176;-83
2023/06/21 15:52:51;;;;;;;6.63;5.93;;;28.40;75.50;;;;;;4997723;28;20246;-83
2023/06/21 15:55:17;;;;;;;7.60;6.10;;;28.10;75.20;;;;;;4997809;28;20192;-83
2023/06/21 15:57:44;;;;;;;7.15;5.93;;;27.90;76.90;;;;;;4999115;28;20199;-83
2023/06/21 16:00:10;;;;;;;6.30;5.70;;;27.90;76.90;;;;;;4999712;28;20205;-83
2023/06/21 16:02:36;;;;;;;6.65;5.75;;;27.80;76.50;;;;;;4999642;28;20187;-83
2023/06/21 16:05:02;;;;;;;6.65;6.00;;;27.80;77.00;;;;;;4999951;28;20642;-82
2023/06/21 16:07:27;;;;;;;5.95;5.55;;;27.60;77.10;;;;;;4999538;28;20257;-82
2023/06/21 16:09:53;;;;;;;5.78;5.35;;;27.70;77.70;;;;;;5002179;28;20242;-83
2023/06/21 16:12:18;;;;;;;6.95;6.32;;;27.70;78.20;;;;;;5001401;28;20187;-83
2023/06/21 16:14:44;;;;;;;6.72;6.00;;;27.70;78.40;;;;;;5001240;28;20186;-82
2023/06/21 16:17:10;;;;;;;6.78;5.95;;;27.50;77.70;;;;;;5001396;28;20223;-82
2023/06/21 16:19:35;;;;;;;6.18;5.68;;;27.40;78.30;;;;;;5001193;28;20175;-82
2023/06/21 16:22:02;;;;;;;6.35;5.57;;;27.30;78.80;;;;;;5001396;28;20186;-82
2023/06/21 16:24:27;;;;;;;6.22;5.60;;;27.40;79.30;;;;;;5001409;28;20187;-82
2023/06/21 16:26:54;;;;;;;6.28;5.55;;;27.30;79.80;;;;;;5000713;28;20625;-81
2023/06/21 16:29:21;;;;;;;6.22;5.53;;;27.40;78.50;;;;;;4998108;28;20572;-82
2023/06/21 16:31:47;;;;;;;5.72;5.30;;;27.30;78.20;;;;;;4999473;28;20172;-82
2023/06/21 16:34:13;;;;;;;7.88;5.85;;;27.20;80.10;;;;;;5000674;28;20176;-83
2023/06/21 16:36:39;;;;;;;7.47;5.75;;;27.10;82.00;;;;;;5000227;28;20211;-83
2023/06/21 16:39:04;;;;;;;6.05;5.55;;;27.20;82.40;;;;;;4999834;28;20176;-80
2023/06/21 16:41:30;;;;;;;7.53;5.45;;;27.20;80.50;;;;;;4999007;28;20176;-80
2023/06/21 16:43:58;;;;;;;6.35;5.55;;;27.20;81.20;;;;;;5000181;28;20211;-80
2023/06/21 16:46:23;;;;;;;9.50;5.65;;;27.10;79.40;;;;;;4998509;28;20247;-81
2023/06/21 16:48:49;;;;;;;6.50;5.90;;;27.20;79.30;;;;;;4999155;28;20175;-80
2023/06/21 16:51:15;;;;;;;7.47;5.80;;;27.00;78.80;;;;;;4999306;28;20191;-81
2023/06/21 16:53:41;;;;;;;5.93;5.40;;;27.10;79.80;;;;;;5000017;28;20263;-84
2023/06/21 16:56:06;;;;;;;6.13;5.63;;;27.00;78.80;;;;;;4998725;28;20232;-83
2023/06/21 16:58:32;;;;;;;8.13;5.80;;;26.90;78.90;;;;;;5000641;28;20180;-83
2023/06/21 17:01:02;;;;;;;6.35;5.72;;;26.90;80.50;;;;;;5001120;28;20172;-83
2023/06/21 17:03:29;;;;;;;6.00;5.40;;;26.90;81.00;;;;;;5002435;28;20179;-83
2023/06/21 17:05:55;;;;;;;6.10;5.47;;;26.90;81.10;;;;;;4999533;28;20347;-83
2023/06/21 17:08:21;;;;;;;6.47;5.43;;;26.90;81.40;;;;;;4998630;28;20176;-82
2023/06/21 17:10:46;;;;;;;5.95;5.45;;;26.80;81.50;;;;;;5001796;28;20180;-82
2023/06/21 17:13:12;;;;;;;6.00;5.43;;;26.70;83.40;;;;;;5000461;28;20222;-82
2023/06/21 17:15:38;;;;;;;6.07;5.55;;;26.60;83.60;;;;;;5000525;28;20196;-82
2023/06/21 17:18:03;;;;;;;5.82;5.32;;;26.60;82.40;;;;;;5001002;28;20184;-82
2023/06/21 17:20:29;;;;;;;5.97;5.28;;;26.50;82.20;;;;;;5001694;28;20195;-82
2023/06/21 17:22:54;;;;;;;8.23;5.60;;;26.40;83.10;;;;;;5001354;28;20231;-82
2023/06/21 17:25:20;;;;;;;5.60;5.10;;;26.40;84.30;;;;;;5000943;28;20176;-81
2023/06/21 17:27:46;;;;;;;5.93;4.93;;;26.30;84.60;;;;;;4997471;28;20291;-83
2023/06/21 17:30:12;;;;;;;6.53;4.97;;;26.20;82.80;;;;;;4996270;28;20559;-83
2023/06/21 17:32:37;;;;;;;5.70;5.20;;;26.20;83.60;;;;;;4997412;28;20257;-84
2023/06/21 17:35:03;;;;;;;7.75;4.95;;;26.10;83.80;;;;;;5000317;28;20679;-82
2023/06/21 17:37:29;;;;;;;10.18;5.70;;;26.10;84.20;;;;;;5000882;28;20757;-82
2023/06/21 17:39:55;;;;;;;6.15;5.30;;;26.00;84.80;;;;;;5000322;28;20173;-82
2023/06/21 17:42:21;;;;;;;6.55;5.95;;;25.90;85.50;;;;;;4999877;28;20245;-82
2023/06/21 17:44:46;;;;;;;5.55;5.15;;;25.90;84.70;;;;;;4999913;28;20606;-82
2023/06/21 17:47:12;;;;;;;5.60;5.20;;;25.80;85.80;;;;;;4999890;28;20227;-82
2023/06/21 17:49:37;;;;;;;5.78;5.22;;;25.80;85.60;;;;;;4999884;28;20580;-82
2023/06/21 17:52:03;;;;;;;5.80;5.30;;;25.70;85.70;;;;;;5003861;28;20200;-83
2023/06/21 17:54:29;;;;;;;6.53;5.15;;;25.70;86.40;;;;;;5003236;28;20192;-83
2023/06/21 17:56:54;;;;;;;5.72;5.22;;;25.60;87.10;;;;;;5003773;28;20238;-83
2023/06/21 17:59:20;;;;;;;6.07;5.57;;;25.60;88.00;;;;;;5003390;28;20250;-83
2023/06/21 18:01:45;;;;;;;9.50;5.00;;;25.50;88.00;;;;;;5003146;28;20172;-83
2023/06/21 18:04:11;;;;;;;5.60;5.10;;;25.50;88.70;;;;;;5004147;28;20172;-83
2023/06/21 18:06:36;;;;;;;7.38;5.53;;;25.40;89.80;;;;;;5003474;28;20192;-83
2023/06/21 18:09:02;;;;;;;6.25;5.63;;;25.40;90.10;;;;;;5003098;28;20239;-83
2023/06/21 18:11:29;;;;;;;9.10;5.68;;;25.30;90.10;;;;;;5003540;28;20299;-83
2023/06/21 18:13:54;;;;;;;6.10;5.60;;;25.30;90.90;;;;;;5002744;28;20655;-83
2023/06/21 18:16:20;;;;;;;5.80;5.03;;;25.20;90.80;;;;;;5003025;28;20212;-83
2023/06/21 18:18:45;;;;;;;6.28;5.78;;;25.10;91.00;;;;;;5002460;28;20191;-83
2023/06/21 18:21:11;;;;;;;8.00;5.93;;;25.00;91.40;;;;;;5003624;28;20172;-83
2023/06/21 18:23:37;;;;;;;6.25;5.65;;;24.90;91.50;;;;;;5002816;28;20525;-83
2023/06/21 18:26:03;;;;;;;6.35;5.75;;;24.90;91.50;;;;;;5001336;28;20631;-83
2023/06/21 18:28:29;;;;;;;5.68;5.22;;;24.90;91.60;;;;;;4995325;28;20706;-83
2023/06/21 18:30:54;;;;;;;7.00;5.88;;;24.80;91.90;;;;;;4995849;28;20182;-83
2023/06/21 18:33:20;;;;;;;5.90;5.40;;;24.80;91.60;;;;;;4995488;28;20180;-83
2023/06/21 18:35:46;;;;;;;6.97;5.88;;;24.70;91.50;;;;;;4995547;28;20222;-83
2023/06/21 18:38:11;;;;;;;9.30;6.20;;;24.70;91.80;;;;;;4995198;28;20215;-83
2023/06/21 18:40:38;;;;;;;7.95;5.88;;;24.70;91.80;;;;;;4995143;28;20180;-83
2023/06/21 18:43:04;;;;;;;6.93;6.13;;;24.70;92.20;;;;;;4995028;28;20184;-83
2023/06/21 18:45:30;;;;;;;6.00;5.28;;;24.70;92.00;;;;;;4996407;28;20298;-83
2023/06/21 18:47:58;;;;;;;8.48;5.93;;;24.70;92.40;;;;;;4994822;28;20196;-82
2023/06/21 18:50:27;;;;;;;6.07;5.32;;;24.70;92.40;;;;;;5001450;28;20183;-83
2023/06/21 18:52:52;;;;;;;11.27;6.25;;;24.60;92.60;;;;;;5001781;28;20231;-83
2023/06/21 18:55:18;;;;;;;7.80;6.07;;;24.60;92.80;;;;;;5001512;28;20188;-83
2023/06/21 18:57:43;;;;;;;7.18;6.45;;;24.50;93.00;;;;;;5001077;28;20258;-83
2023/06/21 19:00:12;;;;;;;8.25;6.10;;;24.50;93.10;;;;;;5001616;28;20181;-82
2023/06/21 19:02:40;;;;;;;11.15;5.80;;;24.40;93.90;;;;;;5001863;28;20187;-82
2023/06/21 19:05:06;;;;;;;8.50;6.70;;;24.30;94.70;;;;;;5000322;28;20207;-82
2023/06/21 19:07:32;;;;;;;7.82;6.90;;;24.20;95.30;;;;;;4999583;28;20199;-82
2023/06/21 19:09:58;;;;;;;6.88;6.10;;;24.10;96.60;;;;;;4998652;28;20643;-82
2023/06/21 19:12:24;;;;;;;7.57;6.72;;;24.00;96.50;;;;;;5001627;28;20187;-83
2023/06/21 19:14:49;;;;;;;7.50;6.80;;;24.00;97.00;;;;;;5001139;28;20230;-83
2023/06/21 19:17:18;;;;;;;7.30;6.60;;;23.80;97.50;;;;;;5001148;28;20208;-83
2023/06/21 19:19:44;;;;;;;7.10;6.50;;;23.70;97.90;;;;;;5001145;28;20362;-83
2023/06/21 19:22:11;;;;;;;8.13;7.32;;;23.70;98.30;;;;;;5000459;28;20176;-84
2023/06/21 19:24:36;;;;;;;6.60;6.10;;;23.50;99.20;;;;;;5000716;28;20207;-82
2023/06/21 19:27:02;;;;;;;7.53;6.82;;;23.40;99.30;;;;;;5000142;28;20742;-82
2023/06/21 19:29:28;;;;;;;7.35;6.63;;;23.30;99.70;;;;;;4999968;28;20248;-82
2023/06/21 19:31:53;;;;;;;7.18;6.47;;;23.10;99.90;;;;;;5000458;28;20191;-82
2023/06/21 19:34:19;;;;;;;6.88;6.38;;;22.90;99.90;;;;;;4999223;28;20187;-81
2023/06/21 19:36:45;;;;;;;8.38;6.70;;;22.90;99.90;;;;;;4999284;28;20216;-80
2023/06/21 19:39:10;;;;;;;6.72;6.13;;;22.80;99.90;;;;;;5000573;28;20168;-80
2023/06/21 19:41:36;;;;;;;7.32;6.50;;;22.80;99.90;;;;;;5000230;28;20218;-80
2023/06/21 19:44:02;;;;;;;8.73;7.00;;;22.80;99.90;;;;;;5001090;28;20176;-81
2023/06/21 19:46:28;;;;;;;7.45;6.85;;;22.70;99.90;;;;;;4999202;28;20227;-81
2023/06/21 19:48:53;;;;;;;7.50;6.82;;;22.60;99.90;;;;;;4999115;28;20189;-80
2023/06/21 19:51:20;;;;;;;7.45;6.30;;;22.50;99.90;;;;;;4999348;28;20611;-81
2023/06/21 19:53:46;;;;;;;7.10;6.40;;;22.40;99.90;;;;;;4999897;28;20172;-80
2023/06/21 19:56:11;;;;;;;9.23;7.00;;;22.40;99.90;;;;;;4998980;28;20255;-81
2023/06/21 19:58:37;;;;;;;7.45;6.75;;;22.30;99.90;;;;;;4999214;28;20557;-80
2023/06/21 20:01:03;;;;;;;7.60;6.82;;;22.20;99.90;;;;;;4999428;28;20176;-81
2023/06/21 20:03:28;;;;;;;7.82;6.88;;;22.20;99.90;;;;;;4999186;28;20263;-81
2023/06/21 20:05:55;;;;;;;7.45;6.57;;;22.00;99.90;;;;;;4998857;28;20698;-81
2023/06/21 20:08:22;;;;;;;7.53;6.85;;;21.70;99.90;;;;;;4998677;28;20176;-80
2023/06/21 20:10:47;;;;;;;8.00;7.20;;;21.60;99.90;;;;;;4999603;28;20229;-80
2023/06/21 20:13:13;;;;;;;7.35;6.65;;;21.60;99.90;;;;;;4995945;28;20184;-81
2023/06/21 20:15:39;;;;;;;7.85;6.45;;;21.60;99.90;;;;;;4999324;28;20207;-81
2023/06/21 20:18:05;;;;;;;7.85;6.43;;;21.60;99.90;;;;;;4999693;28;20180;-81
2023/06/21 20:20:31;;;;;;;7.25;6.68;;;21.60;99.90;;;;;;4999108;28;20195;-81
2023/06/21 20:22:56;;;;;;;9.70;6.80;;;21.60;99.90;;;;;;4999533;28;20168;-81
2023/06/21 20:25:24;;;;;;;7.45;6.80;;;21.60;99.90;;;;;;4999865;28;20239;-80
2023/06/21 20:27:50;;;;;;;7.63;6.80;;;21.30;99.90;;;;;;4998526;28;20187;-81
2023/06/21 20:30:16;;;;;;;7.43;6.80;;;21.40;99.90;;;;;;4995942;28;20192;-82
2023/06/21 20:32:41;;;;;;;8.52;6.82;;;21.40;99.90;;;;;;4994018;28;20231;-82
2023/06/21 20:35:07;;;;;;;12.07;6.85;;;21.40;99.90;;;;;;4994142;28;20207;-83
2023/06/21 20:37:33;;;;;;;7.60;7.00;;;21.40;99.90;;;;;;4993280;28;20582;-82
2023/06/21 20:39:59;;;;;;;7.15;6.60;;;21.30;99.90;;;;;;4993869;28;20183;-83
2023/06/21 20:42:28;;;;;;;7.70;6.90;;;21.30;99.90;;;;;;4993103;28;20558;-83
2023/06/21 20:44:56;;;;;;;7.43;6.72;;;21.30;99.90;;;;;;4993874;28;20472;-83
2023/06/21 20:47:23;;;;;;;7.72;6.88;;;21.30;99.90;;;;;;4992992;28;20226;-83
2023/06/21 20:49:48;;;;;;;7.55;6.75;;;21.20;99.90;;;;;;4993351;28;20199;-83
2023/06/21 20:52:14;;;;;;;7.97;7.03;;;21.10;99.90;;;;;;4994011;28;20184;-83
2023/06/21 20:54:40;;;;;;;7.78;6.78;;;20.80;99.90;;;;;;4993817;28;20187;-83
2023/06/21 20:57:06;;;;;;;7.28;6.57;;;20.70;99.90;;;;;;4993323;28;20301;-84
2023/06/21 20:59:31;;;;;;;7.47;6.75;;;20.70;99.90;;;;;;4993540;28;20271;-82
2023/06/21 21:01:57;;;;;;;9.32;6.85;;;20.60;99.90;;;;;;4993737;28;20218;-83
2023/06/21 21:04:25;;;;;;;7.95;7.15;;;20.70;99.90;;;;;;4994705;28;20169;-83
2023/06/21 21:06:54;;;;;;;8.00;7.20;;;20.70;99.90;;;;;;4994495;28;20206;-83
2023/06/21 21:09:20;;;;;;;7.90;7.20;;;20.70;99.90;;;;;;4995664;28;20176;-83
2023/06/21 21:11:49;;;;;;;8.18;7.28;;;20.60;99.90;;;;;;4997309;28;20200;-81
2023/06/21 21:14:16;;;;;;;8.32;7.63;;;20.70;99.90;;;;;;4995337;28;20184;-81
2023/06/21 21:16:41;;;;;;;7.97;7.15;;;20.60;99.90;;;;;;4994577;28;20572;-81
2023/06/21 21:19:07;;;;;;;8.43;7.55;;;20.50;99.90;;;;;;4994695;28;20183;-81
2023/06/21 21:21:33;;;;;;;7.60;7.00;;;20.50;99.90;;;;;;4995331;28;20646;-81
2023/06/21 21:23:58;;;;;;;8.07;7.32;;;20.50;99.90;;;;;;4994561;28;20517;-81
2023/06/21 21:26:24;;;;;;;7.90;7.30;;;20.50;99.90;;;;;;4995503;28;20735;-81
2023/06/21 21:28:50;;;;;;;8.38;7.53;;;20.50;99.90;;;;;;4995270;28;20211;-82
2023/06/21 21:31:15;;;;;;;8.50;7.80;;;20.50;99.90;;;;;;4996013;28;20195;-82
2023/06/21 21:33:41;;;;;;;8.38;7.55;;;20.50;99.90;;;;;;4995591;28;20195;-82